aviador You're here:

DTTD Decoded Metar

REMADA in TUNISIA
Report Time2017-10-20 17:00:00
UTC Time2017-10-20 18:04:05
Flight Rules vfr VFR
Wind360° at 08 kt
W.Decomp.*RWY 02: 7.5 kt HW 2.9 kt LCW
Visibility8000 m
Phenomena:N/A
Clouds:Broken 030 Hf
Expected CloudBase > 3,200 ft AGL from Temp-Dew spread
Ceiling3,000 ft
Temp21°C (ISA +8)
Dew Point13°C (60% RH)
AAT19.0°C
QNH1015 hPa
Density Alt2,054 ft
Elevation988 ft
Report Wrong Elevation
Raw Report
DTTD 201700Z 36008KT 310V050 8000 BKN030 21/13 Q1015=

Extra information for DTTD:More info

Metar Taf Metar & Taf Last 4 Metars F.Rules Stats Wind Profile Meteogram Temp Stats Airport Information Weather charts Add Link Nearby VenuesMetar ALERT Operation Metar Decoded Social comments